Time;durP1;ratioP1;P1;durP2;ratioP2;P2;SDS_P1;SDS_P2;PMS_P1;PMS_P2;Temp;Humidity;BMP_temperature;BMP_pressure;BME280_temperature;BME280_humidity;BME280_pressure;Samples;Min_cycle;Max_cycle;Signal;HPM_P1;HPM_P2
2022/10/06 00:00:52;;;;;;;66.40;57.50;;;;;;;6.38;100.00;99630.65;105051;1271;75145;-73
2022/10/06 00:03:38;;;;;;;64.60;56.60;;;;;;;6.33;100.00;99632.80;105173;1270;70545;-73
2022/10/06 00:06:06;;;;;;;66.80;56.80;;;;;;;6.29;100.00;99630.30;105152;1271;74712;-74
2022/10/06 00:08:35;;;;;;;66.30;56.90;;;;;;;6.25;100.00;99631.70;105142;1271;61151;-74
2022/10/06 00:11:02;;;;;;;63.80;57.00;;;;;;;6.20;100.00;99637.20;104985;1271;61470;-74
2022/10/06 00:13:30;;;;;;;61.80;53.40;;;;;;;6.13;100.00;99635.16;105238;1271;75912;-73
2022/10/06 00:15:56;;;;;;;58.60;52.20;;;;;;;6.03;100.00;99635.02;105165;1271;70657;-74
2022/10/06 00:18:23;;;;;;;68.70;60.90;;;;;;;5.92;100.00;99628.70;105163;1271;74220;-72
2022/10/06 00:20:59;;;;;;;62.10;53.20;;;;;;;5.88;100.00;99628.30;104925;1271;61371;-76
2022/10/06 00:23:27;;;;;;;56.60;50.30;;;;;;;5.84;100.00;99638.54;105013;1271;61288;-74
2022/10/06 00:25:55;;;;;;;68.10;60.60;;;;;;;5.80;100.00;99639.05;105257;1270;75269;-72
2022/10/06 00:28:22;;;;;;;70.70;61.40;;;;;;;5.77;100.00;99641.80;105035;1271;68128;-73
2022/10/06 00:30:49;;;;;;;69.90;62.20;;;;;;;5.75;100.00;99639.91;105178;1269;73368;-74
2022/10/06 00:33:16;;;;;;;75.00;66.90;;;;;;;5.74;100.00;99639.77;105208;1270;61300;-74
2022/10/06 00:35:44;;;;;;;75.60;67.30;;;;;;;5.75;100.00;99642.39;105190;1271;61230;-73
2022/10/06 00:38:14;;;;;;;67.30;59.90;;;;;;;5.76;100.00;99649.76;105314;1270;75370;-73
2022/10/06 00:40:48;;;;;;;66.90;59.60;;;;;;;5.75;100.00;99646.97;105228;1271;70352;-74
2022/10/06 00:43:54;;;;;;;72.40;59.50;;;;;;;5.72;100.00;99648.66;105194;1271;148966;-73
2022/10/06 00:46:40;;;;;;;78.00;63.90;;;;;;;5.68;100.00;99651.60;105167;1271;61164;-74
2022/10/06 00:49:15;;;;;;;69.90;60.40;;;;;;;5.66;100.00;99649.40;105233;1271;61400;-75
2022/10/06 00:51:55;;;;;;;67.20;59.70;;;;;;;5.64;100.00;99651.23;105212;1270;74618;-75
2022/10/06 00:54:22;;;;;;;71.20;60.20;;;;;;;5.63;100.00;99650.75;105180;1271;68793;-75
2022/10/06 00:56:49;;;;;;;70.50;60.70;;;;;;;5.60;100.00;99654.38;105190;1271;73278;-72
2022/10/06 00:59:17;;;;;;;79.40;63.90;;;;;;;5.56;100.00;99655.05;105197;1271;61189;-73
2022/10/06 01:01:52;;;;;;;68.90;61.10;;;;;;;5.53;100.00;99655.52;105187;1271;61282;-75
2022/10/06 01:04:20;;;;;;;73.00;59.60;;;;;;;5.50;100.00;99661.59;105219;1271;75968;-74
2022/10/06 01:06:51;;;;;;;66.70;59.30;;;;;;;5.49;100.00;99663.21;105245;1271;69165;-74
2022/10/06 01:09:20;;;;;;;68.20;59.10;;;;;;;5.46;100.00;99663.33;105214;1271;74486;-74
2022/10/06 01:11:49;;;;;;;75.10;63.30;;;;;;;5.41;100.00;99665.98;105111;1271;61151;-73
2022/10/06 01:14:18;;;;;;;71.10;61.90;;;;;;;5.40;100.00;99667.42;105237;1271;61300;-75
2022/10/06 01:16:50;;;;;;;73.20;61.70;;;;;;;5.40;100.00;99665.67;105290;1269;74989;-73
2022/10/06 01:19:35;;;;;;;67.80;59.40;;;;;;;5.38;100.00;99674.55;105206;1271;69081;-73
2022/10/06 01:22:05;;;;;;;68.40;59.30;;;;;;;5.35;100.00;99674.46;105177;1271;74413;-74
2022/10/06 01:24:32;;;;;;;64.40;55.80;;;;;;;5.33;100.00;99672.24;104995;1271;61384;-73
2022/10/06 01:27:00;;;;;;;62.40;55.10;;;;;;;5.31;100.00;99676.20;105221;1271;61282;-73
2022/10/06 01:29:27;;;;;;;68.80;55.30;;;;;;;5.27;100.00;99673.48;105216;1271;75560;-73
2022/10/06 01:31:54;;;;;;;67.90;53.80;;;;;;;5.27;100.00;99675.98;104952;1271;70390;-72
2022/10/06 01:34:20;;;;;;;63.00;53.00;;;;;;;5.25;100.00;99681.50;105174;1271;74494;-74
2022/10/06 01:36:47;;;;;;;59.70;50.70;;;;;;;5.25;100.00;99677.09;105173;1269;61345;-73
2022/10/06 01:39:14;;;;;;;58.90;50.90;;;;;;;5.25;100.00;99676.57;105195;1271;61247;-74
2022/10/06 01:41:40;;;;;;;57.00;49.00;;;;;;;5.23;100.00;99671.70;105228;1271;61370;-74
2022/10/06 01:44:06;;;;;;;59.20;48.50;;;;;;;5.22;100.00;99668.92;104985;1271;61493;-73
2022/10/06 01:46:33;;;;;;;56.10;47.70;;;;;;;5.23;100.00;99669.43;105210;1271;61388;-74
2022/10/06 01:48:59;;;;;;;61.30;48.80;;;;;;;5.24;100.00;99676.44;105197;1270;61384;-73
2022/10/06 01:51:26;;;;;;;63.20;53.70;;;;;;;5.29;100.00;99680.65;104941;1271;61350;-74
2022/10/06 01:53:52;;;;;;;65.90;55.20;;;;;;;5.36;100.00;99686.05;105209;1271;61256;-75
2022/10/06 01:56:20;;;;;;;62.40;52.70;;;;;;;5.43;100.00;99688.48;105181;1271;61377;-72
2022/10/06 01:58:47;;;;;;;63.40;52.60;;;;;;;5.46;100.00;99687.66;105120;1270;73178;-74
2022/10/06 02:01:14;;;;;;;62.80;52.70;;;;;;;5.47;100.00;99683.20;105210;1271;61313;-72
2022/10/06 02:03:41;;;;;;;61.50;50.60;;;;;;;5.46;100.00;99683.42;105189;1271;62240;-73
2022/10/06 02:06:08;;;;;;;57.90;48.80;;;;;;;5.42;100.00;99681.27;105183;1271;75899;-73
2022/10/06 02:08:35;;;;;;;58.50;49.70;;;;;;;5.38;100.00;99679.30;105196;1270;69650;-73
2022/10/06 02:11:08;;;;;;;58.50;48.20;;;;;;;5.36;100.00;99677.95;105189;1271;74431;-74
2022/10/06 02:13:35;;;;;;;55.70;48.40;;;;;;;5.34;100.00;99683.34;105254;1271;61267;-73
2022/10/06 02:16:05;;;;;;;61.80;50.50;;;;;;;5.30;100.00;99677.11;105208;1270;62456;-73
2022/10/06 02:18:32;;;;;;;67.60;53.90;;;;;;;5.28;100.00;99679.98;105172;1271;76224;-74
2022/10/06 02:21:00;;;;;;;68.30;55.70;;;;;;;5.28;100.00;99679.64;105214;1271;69594;-73
2022/10/06 02:23:26;;;;;;;70.10;56.00;;;;;;;5.30;100.00;99680.98;105204;1270;74359;-74
2022/10/06 02:26:04;;;;;;;72.90;55.50;;;;;;;5.36;100.00;99679.36;105223;1271;61390;-75
2022/10/06 02:28:31;;;;;;;68.70;55.00;;;;;;;5.41;100.00;99681.47;105219;1271;61275;-74
2022/10/06 02:31:07;;;;;;;60.70;51.10;;;;;;;5.44;100.00;99682.61;105098;1271;76600;-73
2022/10/06 02:33:35;;;;;;;62.30;50.50;;;;;;;5.44;100.00;99683.83;105047;1271;69893;-74
2022/10/06 02:36:03;;;;;;;63.80;51.40;;;;;;;5.43;100.00;99681.05;105192;1271;73244;-74
2022/10/06 02:38:31;;;;;;;68.90;52.40;;;;;;;5.44;100.00;99684.04;105171;1271;61391;-73
2022/10/06 02:40:58;;;;;;;57.60;46.30;;;;;;;5.42;100.00;99685.85;105189;1271;61358;-75
2022/10/06 02:43:30;;;;;;;56.40;46.30;;;;;;;5.39;100.00;99683.32;105226;1271;75090;-75
2022/10/06 02:46:10;;;;;;;54.70;45.80;;;;;;;5.35;100.00;99682.04;105243;1271;69332;-71
2022/10/06 02:48:39;;;;;;;54.30;45.90;;;;;;;5.31;100.00;99683.77;105193;1271;74414;-74
2022/10/06 02:51:10;;;;;;;64.40;50.90;;;;;;;5.28;100.00;99686.70;105099;1271;61207;-74
2022/10/06 02:53:37;;;;;;;56.40;46.50;;;;;;;5.26;100.00;99687.10;105229;1271;62030;-73
2022/10/06 02:56:07;;;;;;;64.70;49.60;;;;;;;5.25;100.00;99683.77;105014;1271;75359;-72
2022/10/06 02:58:33;;;;;;;57.20;48.60;;;;;;;5.27;100.00;99685.13;105207;1271;70229;-74
2022/10/06 03:01:05;;;;;;;62.00;52.00;;;;;;;5.27;100.00;99685.67;105201;1271;74358;-74
2022/10/06 03:03:34;;;;;;;65.20;50.80;;;;;;;5.26;100.00;99682.69;105194;1271;61292;-74
2022/10/06 03:06:20;;;;;;;55.60;45.50;;;;;;;5.26;100.00;99685.14;105252;1271;62376;-73
2022/10/06 03:08:56;;;;;;;55.30;46.80;;;;;;;5.25;100.00;99684.88;105271;1271;75062;-73
2022/10/06 03:11:28;;;;;;;61.00;49.80;;;;;;;5.23;100.00;99689.69;105228;1271;69855;-74
2022/10/06 03:13:56;;;;;;;61.20;46.80;;;;;;;5.22;100.00;99689.55;105233;1271;74785;-73
2022/10/06 03:16:32;;;;;;;57.30;46.30;;;;;;;5.20;100.00;99691.35;105212;1271;61380;-74
2022/10/06 03:19:00;;;;;;;58.20;46.90;;;;;;;5.20;100.00;99693.15;105300;1271;62075;-74
2022/10/06 03:21:29;;;;;;;53.80;45.00;;;;;;;5.18;100.00;99691.60;105204;1269;76001;-75
2022/10/06 03:23:57;;;;;;;53.40;45.00;;;;;;;5.17;100.00;99691.11;105269;1271;68608;-73
2022/10/06 03:26:26;;;;;;;55.90;45.80;;;;;;;5.15;100.00;99694.17;105193;1271;73925;-75
2022/10/06 03:28:55;;;;;;;51.40;44.00;;;;;;;5.13;100.00;99689.83;105230;1270;61274;-75
2022/10/06 03:31:22;;;;;;;51.30;40.80;;;;;;;5.11;100.00;99697.66;105238;1271;61671;-74
2022/10/06 03:33:50;;;;;;;51.50;42.00;;;;;;;5.08;100.00;99703.55;105203;1271;75152;-73
2022/10/06 03:36:20;;;;;;;51.60;44.30;;;;;;;5.06;100.00;99705.39;105396;1270;70486;-73
2022/10/06 03:38:47;;;;;;;50.80;41.00;;;;;;;5.05;100.00;99704.88;105237;1270;74137;-73
2022/10/06 03:41:16;;;;;;;45.30;38.10;;;;;;;5.04;100.00;99705.65;104988;1273;61291;-72
2022/10/06 03:43:45;;;;;;;50.90;41.40;;;;;;;5.02;100.00;99703.43;105246;1270;61335;-73
2022/10/06 03:46:14;;;;;;;44.60;37.70;;;;;;;5.01;100.00;99708.22;105260;1271;75660;-74
2022/10/06 03:48:41;;;;;;;45.50;37.70;;;;;;;4.99;100.00;99705.28;105314;1271;70362;-73
2022/10/06 03:51:20;;;;;;;40.00;34.90;;;;;;;4.97;100.00;99707.45;105350;1271;73993;-72
2022/10/06 03:53:51;;;;;;;40.60;33.70;;;;;;;4.96;100.00;99710.83;105403;1271;61320;-73
2022/10/06 03:56:30;;;;;;;40.70;35.00;;;;;;;4.95;100.00;99703.31;105169;1271;61254;-72
2022/10/06 03:58:59;;;;;;;41.60;36.30;;;;;;;4.93;100.00;99709.35;105148;1271;75735;-74
2022/10/06 04:01:31;;;;;;;50.20;39.80;;;;;;;4.91;100.00;99706.22;105290;1270;68991;-74
2022/10/06 04:03:59;;;;;;;48.20;39.30;;;;;;;4.91;100.00;99708.35;105277;1271;73183;-74
2022/10/06 04:06:28;;;;;;;46.90;39.30;;;;;;;4.92;100.00;99710.10;104951;1271;61381;-74
2022/10/06 04:08:56;;;;;;;49.00;37.70;;;;;;;4.92;100.00;99713.61;105262;1271;61376;-73
2022/10/06 04:11:28;;;;;;;46.90;37.70;;;;;;;4.93;100.00;99715.67;105274;1271;75410;-72
2022/10/06 04:14:00;;;;;;;48.20;38.40;;;;;;;4.92;100.00;99713.59;105285;1271;68353;-72
2022/10/06 04:16:30;;;;;;;43.40;36.10;;;;;;;4.92;100.00;99713.25;105197;1271;73974;-74
2022/10/06 04:19:02;;;;;;;43.00;34.60;;;;;;;4.91;100.00;99714.70;105329;1271;61291;-75
2022/10/06 04:21:30;;;;;;;43.00;33.70;;;;;;;4.90;100.00;99711.91;105198;1270;62230;-72
2022/10/06 04:23:58;;;;;;;37.90;32.70;;;;;;;4.89;100.00;99721.27;105353;1271;74190;-75
2022/10/06 04:26:31;;;;;;;41.90;35.80;;;;;;;4.87;100.00;99718.88;105198;1271;70427;-74
2022/10/06 04:28:59;;;;;;;44.40;37.80;;;;;;;4.87;100.00;99722.91;104999;1273;74729;-74
2022/10/06 04:31:37;;;;;;;44.00;38.50;;;;;;;4.90;100.00;99727.05;104948;1272;61353;-75
2022/10/06 04:34:05;;;;;;;49.60;40.30;;;;;;;4.92;100.00;99725.23;105261;1271;61342;-74
2022/10/06 04:36:35;;;;;;;45.70;37.80;;;;;;;4.94;100.00;99726.73;105217;1271;75800;-73
2022/10/06 04:39:03;;;;;;;44.60;36.30;;;;;;;4.95;100.00;99729.17;105166;1271;69446;-73
2022/10/06 04:41:35;;;;;;;39.80;34.70;;;;;;;4.94;100.00;99729.71;105187;1271;73314;-75
2022/10/06 04:44:05;;;;;;;43.20;35.00;;;;;;;4.93;100.00;99732.05;105176;1271;61332;-74
2022/10/06 04:46:33;;;;;;;38.80;34.20;;;;;;;4.93;100.00;99733.99;105175;1271;61785;-73
2022/10/06 04:49:00;;;;;;;46.40;33.70;;;;;;;4.91;100.00;99729.31;104926;1271;75339;-75
2022/10/06 04:51:27;;;;;;;42.40;33.50;;;;;;;4.90;100.00;99736.73;105257;1270;68918;-73
2022/10/06 04:53:54;;;;;;;45.60;38.50;;;;;;;4.91;100.00;99742.67;105189;1271;74190;-72
2022/10/06 04:56:20;;;;;;;45.50;37.30;;;;;;;4.93;100.00;99746.33;105216;1271;61298;-73
2022/10/06 04:58:48;;;;;;;47.80;38.00;;;;;;;4.96;100.00;99747.27;105200;1271;61294;-73
2022/10/06 05:01:29;;;;;;;47.90;39.70;;;;;;;5.00;100.00;99749.08;105369;1271;74870;-73
2022/10/06 05:03:57;;;;;;;41.60;36.20;;;;;;;5.05;100.00;99752.44;105167;1271;70319;-74
2022/10/06 05:06:39;;;;;;;46.90;37.70;;;;;;;5.09;100.00;99755.83;105254;1271;73430;-74
2022/10/06 05:09:12;;;;;;;44.60;36.40;;;;;;;5.15;100.00;99750.89;105183;1271;61290;-73
2022/10/06 05:11:38;;;;;;;43.60;36.30;;;;;;;5.19;100.00;99746.18;105209;1271;61928;-73
2022/10/06 05:14:06;;;;;;;46.00;37.60;;;;;;;5.27;100.00;99751.05;105180;1271;75392;-74
2022/10/06 05:16:33;;;;;;;52.40;40.80;;;;;;;5.45;100.00;99750.98;105072;1271;69622;-76
2022/10/06 05:18:59;;;;;;;52.50;42.60;;;;;;;5.65;100.00;99751.69;105174;1271;73863;-73
2022/10/06 05:21:28;;;;;;;50.10;42.60;;;;;;;5.87;100.00;99749.85;105213;1271;61329;-74
2022/10/06 05:23:55;;;;;;;47.90;40.20;;;;;;;6.09;100.00;99748.76;105242;1271;61247;-74
2022/10/06 05:26:25;;;;;;;42.00;36.70;;;;;;;6.28;100.00;99754.38;105198;1270;75548;-74
2022/10/06 05:28:52;;;;;;;40.10;35.10;;;;;;;6.49;100.00;99760.15;105271;1271;68714;-74
2022/10/06 05:31:21;;;;;;;36.80;32.90;;;;;;;6.59;100.00;99753.73;105183;1271;73179;-75
2022/10/06 05:33:48;;;;;;;40.60;34.20;;;;;;;6.66;100.00;99761.59;105244;1271;61389;-74
2022/10/06 05:36:18;;;;;;;40.30;35.90;;;;;;;6.75;100.00;99761.08;105499;1271;61282;-74
2022/10/06 05:38:45;;;;;;;45.10;36.10;;;;;;;6.84;100.00;99757.54;105234;1271;76428;-74
2022/10/06 05:41:21;;;;;;;42.90;34.80;;;;;;;6.95;100.00;99761.01;105201;1271;68327;-73
2022/10/06 05:43:47;;;;;;;40.40;34.90;;;;;;;7.07;100.00;99762.64;105174;1271;73179;-73
2022/10/06 05:46:29;;;;;;;38.90;34.70;;;;;;;7.17;100.00;99765.77;105210;1271;61310;-73
2022/10/06 05:49:02;;;;;;;39.00;34.70;;;;;;;7.28;100.00;99769.73;105003;1271;61370;-74
2022/10/06 05:51:30;;;;;;;41.20;36.20;;;;;;;7.40;100.00;99774.19;105240;1271;76405;-75
2022/10/06 05:53:58;;;;;;;41.60;36.10;;;;;;;7.54;100.00;99774.14;105196;1271;69895;-74
2022/10/06 05:56:31;;;;;;;39.00;34.20;;;;;;;7.67;100.00;99776.23;105203;1270;74109;-73
2022/10/06 05:58:59;;;;;;;39.30;34.90;;;;;;;7.81;100.00;99784.30;105288;1271;61410;-73
2022/10/06 06:01:39;;;;;;;44.00;36.60;;;;;;;7.96;100.00;99787.73;105292;1271;61269;-74
2022/10/06 06:04:08;;;;;;;40.10;35.60;;;;;;;8.13;100.00;99793.00;105201;1271;75146;-74
2022/10/06 06:06:37;;;;;;;46.30;38.10;;;;;;;8.29;100.00;99790.36;105281;1271;69168;-73
2022/10/06 06:09:07;;;;;;;38.80;34.80;;;;;;;8.45;100.00;99800.99;105229;1271;74502;-73
2022/10/06 06:11:36;;;;;;;41.70;36.70;;;;;;;8.61;100.00;99807.52;105257;1271;61277;-74
2022/10/06 06:14:04;;;;;;;40.90;36.40;;;;;;;8.73;100.00;99813.19;105216;1271;61263;-74
2022/10/06 06:16:31;;;;;;;41.60;34.80;;;;;;;8.84;100.00;99818.70;105236;1271;75163;-76
2022/10/06 06:18:59;;;;;;;36.60;32.50;;;;;;;8.98;100.00;99818.39;105260;1271;70288;-74
2022/10/06 06:21:27;;;;;;;36.60;32.50;;;;;;;9.14;100.00;99824.54;105175;1271;74192;-73
2022/10/06 06:23:54;;;;;;;35.70;31.20;;;;;;;9.31;100.00;99830.48;105243;1271;61458;-74
2022/10/06 06:26:29;;;;;;;35.60;31.60;;;;;;;9.49;100.00;99834.73;105239;1271;61172;-74
2022/10/06 06:29:02;;;;;;;30.30;26.40;;;;;;;9.66;100.00;99842.60;105192;1271;76477;-73
2022/10/06 06:31:31;;;;;;;26.10;23.30;;;;;;;9.82;100.00;99850.84;105277;1271;70210;-74
2022/10/06 06:34:01;;;;;;;29.50;24.30;;;;;;;10.02;100.00;99856.23;105248;1271;73351;-75
2022/10/06 06:36:34;;;;;;;27.40;23.50;;;;;;;10.24;100.00;99852.64;105424;1270;61275;-74
2022/10/06 06:39:04;;;;;;;26.90;20.80;;;;;;;10.46;100.00;99848.64;105264;1271;62057;-72
2022/10/06 06:41:34;;;;;;;21.50;18.90;;;;;;;10.65;100.00;99846.76;105166;1271;75209;-76
2022/10/06 06:44:01;;;;;;;20.70;17.80;;;;;;;10.84;100.00;99847.38;105216;1271;70440;-73
2022/10/06 06:46:30;;;;;;;24.40;20.30;;;;;;;11.00;100.00;99851.26;105188;1271;73216;-74
2022/10/06 06:49:02;;;;;;;25.30;21.00;;;;;;;11.16;100.00;99855.17;105118;1271;61411;-72
2022/10/06 06:51:32;;;;;;;20.30;16.60;;;;;;;11.32;100.00;99855.91;105071;1273;61386;-75
2022/10/06 06:54:01;;;;;;;18.90;16.50;;;;;;;11.44;100.00;99851.83;105261;1271;75175;-75
2022/10/06 06:56:35;;;;;;;18.00;15.80;;;;;;;11.56;100.00;99853.66;105325;1271;68953;-76
2022/10/06 06:59:09;;;;;;;19.10;14.90;;;;;;;11.68;100.00;99859.91;105030;1274;73905;-73
2022/10/06 07:01:40;;;;;;;18.30;15.00;;;;;;;11.80;100.00;99861.68;105009;1271;61326;-75
2022/10/06 07:04:06;;;;;;;15.80;14.20;;;;;;;11.92;100.00;99860.36;105209;1271;61341;-73
2022/10/06 07:06:36;;;;;;;15.10;13.20;;;;;;;12.03;100.00;99863.96;105024;1274;76402;-74
2022/10/06 07:09:03;;;;;;;13.90;12.30;;;;;;;12.16;100.00;99861.95;105348;1271;69523;-74
2022/10/06 07:11:33;;;;;;;16.90;9.20;;;;;;;12.29;100.00;99859.70;105237;1271;61274;-72
2022/10/06 07:14:03;;;;;;;12.80;9.00;;;;;;;12.44;100.00;99864.37;105222;1271;61358;-74
2022/10/06 07:25:06;;;;;;;9.00;6.30;;;;;;;13.03;100.00;99871.94;105176;1271;74478;-74
2022/10/06 07:27:40;;;;;;;9.80;6.10;;;;;;;13.19;100.00;99879.13;105210;1269;61323;-74
2022/10/06 07:30:09;;;;;;;7.50;5.20;;;;;;;13.34;100.00;99873.92;105188;1271;61215;-75
2022/10/06 07:32:36;;;;;;;8.80;5.10;;;;;;;13.48;100.00;99880.73;105198;1271;75042;-72
2022/10/06 07:35:05;;;;;;;8.10;5.10;;;;;;;13.62;100.00;99885.86;105216;1271;69702;-73
2022/10/06 07:37:34;;;;;;;6.70;4.90;;;;;;;13.79;100.00;99879.55;105087;1271;73416;-75
2022/10/06 07:40:00;;;;;;;7.90;4.80;;;;;;;13.93;100.00;99879.55;105199;1271;61327;-74
2022/10/06 07:42:27;;;;;;;6.50;4.00;;;;;;;14.03;100.00;99885.83;104946;1273;61302;-74
2022/10/06 07:47:39;;;;;;;3.70;3.40;;;;;;;14.43;100.00;99897.96;105200;1271;70450;-74
2022/10/06 07:50:07;;;;;;;8.40;3.70;;;;;;;14.63;100.00;99885.73;105194;1271;73709;-75
2022/10/06 07:52:37;;;;;;;5.50;3.50;;;;;;;14.80;100.00;99882.90;105224;1271;61271;-73
2022/10/06 07:55:05;;;;;;;7.50;4.50;;;;;;;14.97;100.00;99885.14;105228;1271;61999;-74
2022/10/06 07:57:34;;;;;;;4.10;3.30;;;;;;;15.12;100.00;99890.35;105375;1271;75376;-74
2022/10/06 08:00:04;;;;;;;5.90;3.40;;;;;;;15.26;100.00;99898.77;105211;1271;69114;-73
2022/10/06 08:02:30;;;;;;;6.30;3.80;;;;;;;15.39;100.00;99907.03;105220;1271;73622;-74
2022/10/06 08:04:57;;;;;;;4.60;3.30;;;;;;;15.53;100.00;99912.27;105065;1272;61282;-75
2022/10/06 08:07:25;;;;;;;7.00;3.70;;;;;;;15.64;100.00;99907.55;105249;1271;61381;-74
2022/10/06 08:09:51;;;;;;;6.10;4.00;;;;;;;15.74;100.00;99914.19;105317;1271;74208;-74
2022/10/06 08:12:33;;;;;;;6.20;3.20;;;;;;;15.84;100.00;99924.15;105220;1271;61307;-74
2022/10/06 08:15:02;;;;;;;3.70;3.40;;;;;;;15.97;100.00;99922.08;105049;1273;73422;-73
2022/10/06 08:17:29;;;;;;;6.90;4.20;;;;;;;16.14;100.00;99922.26;105282;1271;61420;-75
2022/10/06 08:19:56;;;;;;;6.70;3.50;;;;;;;16.26;100.00;99927.81;105248;1271;61338;-74
2022/10/06 08:22:26;;;;;;;4.40;3.60;;;;;;;16.42;100.00;99929.34;105207;1271;75141;-74
2022/10/06 08:24:53;;;;;;;5.90;3.60;;;;;;;16.60;100.00;99932.95;105213;1271;70298;-74
2022/10/06 08:27:22;;;;;;;3.30;3.00;;;;;;;16.89;100.00;99934.89;105234;1271;73160;-73
2022/10/06 08:29:49;;;;;;;7.00;3.50;;;;;;;17.17;100.00;99931.57;105194;1271;61544;-75
2022/10/06 08:32:18;;;;;;;4.50;3.20;;;;;;;17.29;100.00;99938.36;105228;1271;62129;-74
2022/10/06 08:34:46;;;;;;;4.10;3.80;;;;;;;17.34;100.00;99938.48;105201;1271;73618;-74
2022/10/06 08:37:14;;;;;;;3.40;3.10;;;;;;;17.33;100.00;99943.56;105000;1272;68797;-73
2022/10/06 08:39:41;;;;;;;4.70;3.30;;;;;;;17.30;100.00;99944.38;105192;1271;73160;-72
2022/10/06 08:42:18;;;;;;;6.20;3.50;;;;;;;17.21;100.00;99947.42;105274;1269;61554;-73
2022/10/06 08:44:51;;;;;;;3.60;3.30;;;;;;;17.14;100.00;99953.59;105158;1271;61151;-74
2022/10/06 08:47:21;;;;;;;7.60;4.00;;;;;;;16.98;100.00;99951.39;105254;1271;76105;-75
2022/10/06 08:49:51;;;;;;;4.30;3.00;;;;;;;16.82;100.00;99951.89;105009;1271;67645;-73
2022/10/06 08:52:18;;;;;;;4.10;3.70;;;;;;;16.78;100.00;99953.48;105278;1271;73256;-73
2022/10/06 08:55:06;;;;;;;5.30;3.60;;;;;;;16.81;100.00;99957.89;105128;1271;61294;-74
2022/10/06 08:57:33;;;;;;;6.00;3.60;;;;;;;16.86;100.00;99960.74;105187;1271;61963;-74
2022/10/06 09:00:00;;;;;;;5.10;3.60;;;;;;;16.87;100.00;99966.59;105161;1271;61306;-74
2022/10/06 09:02:28;;;;;;;4.70;3.80;;;;;;;16.88;100.00;99970.67;105252;1271;69231;-72
2022/10/06 09:05:01;;;;;;;4.70;4.10;;;;;;;16.87;100.00;99971.80;105213;1271;73735;-73
2022/10/06 09:07:42;;;;;;;5.90;3.90;;;;;;;16.91;100.00;99974.17;105176;1271;61281;-73
2022/10/06 09:10:35;;;;;;;4.00;3.60;;;;;;;16.98;100.00;99977.23;105201;1271;61973;-74
2022/10/06 09:13:08;;;;;;;7.20;3.80;;;;;;;17.07;100.00;99980.47;105180;1271;75250;-74
2022/10/06 09:15:50;;;;;;;4.90;4.10;;;;;;;17.23;100.00;99981.76;105258;1271;67580;-74
2022/10/06 09:18:30;;;;;;;5.00;4.20;;;;;;;17.31;100.00;99985.27;105160;1271;74275;-74
2022/10/06 09:21:10;;;;;;;4.30;3.70;;;;;;;17.42;100.00;99976.98;105199;1271;61394;-75
2022/10/06 09:23:49;;;;;;;4.90;4.30;;;;;;;17.55;100.00;99981.34;105174;1271;61352;-73
2022/10/06 09:26:21;;;;;;;6.20;4.30;;;;;;;17.61;100.00;99978.75;105181;1271;74437;-74
2022/10/06 09:28:49;;;;;;;5.50;4.00;;;;;;;17.64;100.00;99978.83;105222;1269;69551;-73
2022/10/06 09:31:22;;;;;;;6.90;5.00;;;;;;;17.71;100.00;99976.86;105220;1271;73557;-74
2022/10/06 09:34:03;;;;;;;6.10;4.60;;;;;;;17.73;100.00;99980.63;105096;1271;61407;-74
2022/10/06 09:36:30;;;;;;;6.80;4.30;;;;;;;17.76;100.00;99976.02;105191;1271;61351;-73
2022/10/06 09:38:59;;;;;;;9.60;5.50;;;;;;;17.83;100.00;99981.12;105200;1271;74889;-73
2022/10/06 09:41:28;;;;;;;7.00;4.50;;;;;;;17.86;100.00;99983.20;105197;1271;69453;-73
2022/10/06 09:44:02;;;;;;;8.90;4.70;;;;;;;17.90;100.00;99985.05;105214;1271;72695;-73
2022/10/06 09:46:30;;;;;;;7.80;4.60;;;;;;;17.96;100.00;99993.15;105200;1271;61276;-74
2022/10/06 09:49:18;;;;;;;6.00;4.60;;;;;;;18.04;100.00;99995.77;105016;1271;62070;-72
2022/10/06 09:52:01;;;;;;;5.20;4.10;;;;;;;18.09;100.00;99995.53;105194;1270;76473;-74
2022/10/06 09:54:29;;;;;;;5.30;4.70;;;;;;;18.16;100.00;99992.26;105260;1271;69208;-73
2022/10/06 09:56:58;;;;;;;6.40;4.40;;;;;;;18.21;100.00;99999.60;105328;1271;74397;-74
2022/10/06 09:59:33;;;;;;;5.50;4.40;;;;;;;18.24;100.00;99996.97;105330;1270;61400;-75
2022/10/06 10:02:02;;;;;;;6.30;4.30;;;;;;;18.29;100.00;100000.34;105229;1271;61225;-74
2022/10/06 10:04:35;;;;;;;6.30;4.70;;;;;;;18.36;100.00;100001.95;105263;1271;76353;-74
2022/10/06 10:07:25;;;;;;;4.90;4.20;;;;;;;18.43;100.00;99999.75;105241;1270;68751;-74
2022/10/06 10:09:53;;;;;;;7.60;4.40;;;;;;;18.51;100.00;99997.98;105213;1269;74357;-74
2022/10/06 10:12:23;;;;;;;6.20;4.70;;;;;;;18.58;100.00;100004.98;105193;1271;61359;-74
2022/10/06 10:14:52;;;;;;;5.60;4.60;;;;;;;18.66;100.00;100005.35;104972;1274;61279;-73
2022/10/06 10:17:33;;;;;;;4.40;3.80;;;;;;;18.73;100.00;100002.83;105274;1271;75371;-73
2022/10/06 10:20:02;;;;;;;7.50;4.10;;;;;;;18.83;100.00;100003.70;105271;1270;69300;-74
2022/10/06 10:22:39;;;;;;;5.40;4.20;;;;;;;18.90;100.00;100005.17;105165;1271;73380;-74
2022/10/06 10:25:23;;;;;;;8.40;4.90;;;;;;;19.00;100.00;100007.03;105198;1271;61291;-74
2022/10/06 10:28:03;;;;;;;4.50;3.90;;;;;;;19.10;100.00;100010.31;105209;1271;61344;-73
2022/10/06 10:30:38;;;;;;;5.20;4.30;;;;;;;19.14;100.00;100012.85;105163;1271;75234;-73
2022/10/06 10:33:17;;;;;;;6.70;4.20;;;;;;;19.05;100.00;100011.22;105193;1271;69187;-74
2022/10/06 10:35:50;;;;;;;5.80;4.70;;;;;;;19.11;100.00;100011.31;105154;1270;74395;-73
2022/10/06 10:38:19;;;;;;;4.80;4.30;;;;;;;19.22;100.00;100011.78;105174;1271;61334;-73
2022/10/06 10:40:47;;;;;;;;;;;;;;;19.31;100.00;100014.74;105170;1271;61276;-72
2022/10/06 10:43:34;;;;;;;9.20;4.80;;;;;;;19.40;100.00;100017.04;105202;1271;75474;-72
2022/10/06 10:46:10;;;;;;;6.60;5.00;;;;;;;19.48;100.00;100018.33;105197;1271;68144;-72
2022/10/06 10:48:40;;;;;;;8.80;4.90;;;;;;;19.56;100.00;100017.63;105197;1270;73433;-73
2022/10/06 10:51:27;;;;;;;8.40;4.20;;;;;;;19.63;100.00;100015.78;105180;1270;61294;-74
2022/10/06 10:53:57;;;;;;;4.50;3.90;;;;;;;19.71;100.00;100008.92;105162;1271;61157;-73
2022/10/06 10:56:26;;;;;;;6.00;4.10;;;;;;;19.74;100.00;100007.09;104936;1273;73934;-72
2022/10/06 10:58:58;;;;;;;6.30;4.20;;;;;;;19.84;100.00;99999.30;105209;1271;69469;-73
2022/10/06 11:01:32;;;;;;;5.90;4.10;;;;;;;19.92;100.00;100001.45;105116;1271;73263;-71
2022/10/06 11:03:59;;;;;;;6.10;3.70;;;;;;;19.98;100.00;100000.22;105172;1271;61295;-74
2022/10/06 11:06:26;;;;;;;4.50;4.10;;;;;;;20.05;100.00;99999.03;104937;1271;61383;-74
2022/10/06 11:09:05;;;;;;;7.40;3.80;;;;;;;20.12;100.00;99995.35;105162;1271;61313;-72
2022/10/06 11:11:53;;;;;;;5.00;3.50;;;;;;;20.13;100.00;99998.09;105167;1271;69862;-73
2022/10/06 11:14:46;;;;;;;5.60;4.20;;;;;;;20.21;100.00;100002.14;105333;1271;73302;-73
2022/10/06 11:17:30;;;;;;;6.40;4.40;;;;;;;20.31;100.00;100001.55;105280;1271;61266;-74
2022/10/06 11:20:18;;;;;;;6.20;4.30;;;;;;;20.43;100.00;100004.22;105175;1271;62018;-75
2022/10/06 11:23:07;;;;;;;5.20;3.50;;;;;;;20.50;100.00;100011.22;105025;1271;74287;-75
2022/10/06 11:25:54;;;;;;;6.60;4.00;;;;;;;20.61;100.00;100011.25;105211;1271;69151;-73
2022/10/06 11:28:39;;;;;;;4.30;3.40;;;;;;;20.69;100.00;100014.18;105194;1270;73931;-74
2022/10/06 11:31:44;;;;;;;6.50;3.60;;;;;;;20.73;100.00;100020.11;105241;1270;61239;-73
2022/10/06 11:34:11;;;;;;;6.80;4.50;;;;;;;20.71;100.00;100022.61;104485;1280;61967;-73
2022/10/06 11:36:57;;;;;;;5.30;3.90;;;;;;;20.66;100.00;100019.83;104481;1279;76060;-73
2022/10/06 11:39:50;;;;;;;4.80;3.60;;;;;;;20.72;100.00;100019.61;104451;1278;70372;-73
2022/10/06 11:42:22;;;;;;;6.90;4.00;;;;;;;20.96;100.00;100018.13;104442;1279;74383;-74